createdAt,value
2017-12-14T00:01:15.797Z,2.16
2017-12-14T00:03:43.410Z,2.24
2017-12-14T00:06:11.030Z,2.31
2017-12-14T00:08:38.620Z,2.38
2017-12-14T00:11:06.219Z,2.50
2017-12-14T00:13:34.329Z,2.56
2017-12-14T00:16:01.980Z,2.68
2017-12-14T00:18:29.589Z,2.69
2017-12-14T00:20:57.158Z,2.79
2017-12-14T00:23:24.905Z,2.85
2017-12-14T00:25:52.499Z,2.93
2017-12-14T00:28:20.091Z,2.96
2017-12-14T00:30:47.666Z,2.93
2017-12-14T00:33:15.290Z,2.91
2017-12-14T00:35:42.929Z,2.89
2017-12-14T00:38:10.586Z,2.88
2017-12-14T00:40:38.154Z,2.87
2017-12-14T00:43:05.779Z,2.87
2017-12-14T00:45:33.435Z,2.88
2017-12-14T00:48:00.995Z,2.88
2017-12-14T00:50:28.643Z,2.89
2017-12-14T00:52:56.215Z,2.94
2017-12-14T00:55:23.800Z,2.96
2017-12-14T00:57:51.643Z,2.95
2017-12-14T01:00:19.279Z,2.94
2017-12-14T01:02:46.863Z,2.93
2017-12-14T01:05:14.429Z,2.94
2017-12-14T01:07:42.105Z,2.90
2017-12-14T01:10:09.689Z,2.86
2017-12-14T01:12:37.295Z,2.85
2017-12-14T01:15:04.870Z,2.83
2017-12-14T01:17:32.523Z,2.84
2017-12-14T01:20:00.105Z,2.85
2017-12-14T01:22:27.695Z,2.82
2017-12-14T01:24:55.285Z,2.81
2017-12-14T01:27:22.862Z,2.81
2017-12-14T01:29:50.443Z,2.78
2017-12-14T01:32:18.020Z,2.78
2017-12-14T01:34:45.607Z,2.78
2017-12-14T01:37:13.316Z,2.80
2017-12-14T01:39:41.291Z,2.81
2017-12-14T01:42:08.871Z,2.80
2017-12-14T01:44:36.451Z,2.79
2017-12-14T01:47:04.045Z,2.79
2017-12-14T01:49:31.602Z,2.80
2017-12-14T01:51:59.327Z,2.79
2017-12-14T01:54:26.901Z,2.78
2017-12-14T01:56:54.519Z,2.77
2017-12-14T01:59:22.155Z,2.75
2017-12-14T02:01:49.770Z,2.73
2017-12-14T02:04:17.337Z,2.73
2017-12-14T02:06:44.915Z,2.71
2017-12-14T02:09:12.537Z,2.71
2017-12-14T02:14:14.033Z,2.69
2017-12-14T02:16:41.653Z,2.69
2017-12-14T02:19:09.257Z,2.68
2017-12-14T02:21:36.819Z,2.67
2017-12-14T02:24:04.473Z,2.66
2017-12-14T02:26:32.047Z,2.64
2017-12-14T02:29:00.057Z,2.63
2017-12-14T02:31:27.633Z,2.63
2017-12-14T02:33:55.213Z,2.63
2017-12-14T02:36:22.856Z,2.61
2017-12-14T02:38:50.429Z,2.56
2017-12-14T02:41:18.031Z,2.54
2017-12-14T02:43:45.589Z,2.54
2017-12-14T02:46:13.223Z,2.54
2017-12-14T02:48:40.793Z,2.54
2017-12-14T02:51:08.413Z,2.54
2017-12-14T02:53:35.977Z,2.54
2017-12-14T02:56:03.557Z,2.55
2017-12-14T02:58:31.168Z,2.56
2017-12-14T03:00:58.743Z,2.57
2017-12-14T03:03:26.326Z,2.59
2017-12-14T03:05:53.889Z,2.61
2017-12-14T03:08:21.507Z,2.63
2017-12-14T03:10:49.078Z,2.66
2017-12-14T03:13:16.713Z,2.76
2017-12-14T03:15:44.311Z,2.94
2017-12-14T03:18:11.885Z,3.12
2017-12-14T03:20:39.526Z,3.34
2017-12-14T03:23:07.121Z,3.83
2017-12-14T03:25:34.753Z,4.13
2017-12-14T03:28:02.381Z,4.51
2017-12-14T03:30:29.983Z,4.87
2017-12-14T03:32:57.563Z,5.14
2017-12-14T03:35:25.193Z,5.29
2017-12-14T03:37:52.754Z,5.44
2017-12-14T03:40:20.358Z,5.69
2017-12-14T03:42:47.935Z,5.83
2017-12-14T03:45:15.512Z,5.90
2017-12-14T03:47:43.109Z,6.07
2017-12-14T03:50:10.708Z,6.11
2017-12-14T03:52:38.310Z,6.06
2017-12-14T03:55:05.891Z,6.10
2017-12-14T03:57:33.470Z,6.09
2017-12-14T04:00:01.100Z,6.19
2017-12-14T04:02:28.685Z,6.31
2017-12-14T04:04:56.251Z,6.46
2017-12-14T04:07:23.849Z,6.36
2017-12-14T04:09:51.436Z,6.41
2017-12-14T04:12:19.357Z,6.45
2017-12-14T04:14:46.937Z,6.39
2017-12-14T04:17:14.502Z,6.30
2017-12-14T04:19:42.081Z,6.40
2017-12-14T04:22:09.703Z,6.41
2017-12-14T04:24:37.390Z,6.39
2017-12-14T04:27:04.980Z,6.33
2017-12-14T04:29:32.716Z,6.26
2017-12-14T04:32:00.280Z,6.24
2017-12-14T04:34:27.896Z,6.29
2017-12-14T04:36:55.488Z,6.25
2017-12-14T04:39:23.319Z,6.22
2017-12-14T04:41:50.904Z,6.26
2017-12-14T04:44:18.487Z,6.26
2017-12-14T04:46:46.113Z,6.31
2017-12-14T04:49:13.678Z,6.29
2017-12-14T04:51:41.296Z,6.31
2017-12-14T04:54:08.864Z,6.26
2017-12-14T04:56:36.430Z,6.22
2017-12-14T04:59:04.041Z,6.29
2017-12-14T05:01:31.686Z,6.24
2017-12-14T05:03:59.266Z,6.22
2017-12-14T05:06:26.856Z,6.20
2017-12-14T05:08:54.436Z,6.23
2017-12-14T05:11:22.190Z,6.22
2017-12-14T05:13:49.864Z,6.23
2017-12-14T05:16:17.436Z,6.28
2017-12-14T05:18:45.055Z,6.28
2017-12-14T05:21:17.446Z,6.26
2017-12-14T05:23:45.038Z,6.29
2017-12-14T05:26:12.643Z,6.31
2017-12-14T05:28:40.286Z,6.34
2017-12-14T05:31:07.882Z,6.33
2017-12-14T05:33:35.577Z,6.38
2017-12-14T05:36:03.136Z,6.37
2017-12-14T05:38:30.820Z,6.24
2017-12-14T05:40:58.440Z,6.14
2017-12-14T05:43:26.022Z,6.13
2017-12-14T05:45:53.596Z,6.19
2017-12-14T05:48:21.183Z,6.19
2017-12-14T05:50:48.758Z,6.15
2017-12-14T05:53:16.350Z,6.06
2017-12-14T05:55:43.997Z,6.01
2017-12-14T05:58:11.558Z,5.99
2017-12-14T06:00:39.176Z,5.93
2017-12-14T06:03:06.749Z,5.92
2017-12-14T06:05:34.360Z,5.95
2017-12-14T06:08:01.953Z,5.97
2017-12-14T06:10:29.555Z,6.02
2017-12-14T06:12:57.161Z,6.10
2017-12-14T06:15:24.742Z,6.17
2017-12-14T06:17:52.325Z,6.14
2017-12-14T06:20:19.899Z,6.18
2017-12-14T06:22:47.477Z,6.21
2017-12-14T06:25:15.053Z,5.53
2017-12-14T06:27:42.637Z,4.10
2017-12-14T06:30:10.212Z,3.67
2017-12-14T06:32:37.790Z,3.67
2017-12-14T06:35:05.370Z,3.65
2017-12-14T06:37:32.959Z,3.59
2017-12-14T06:40:00.577Z,3.53
2017-12-14T06:42:28.150Z,3.49
2017-12-14T06:44:55.754Z,3.42
2017-12-14T06:47:23.381Z,3.34
2017-12-14T06:49:51.005Z,3.36
2017-12-14T06:52:18.580Z,3.29
2017-12-14T06:54:46.202Z,3.26
2017-12-14T06:57:13.758Z,3.26
2017-12-14T06:59:41.315Z,3.28
2017-12-14T07:02:08.939Z,3.33
2017-12-14T07:04:36.527Z,3.35
2017-12-14T07:07:04.126Z,3.40
2017-12-14T07:09:31.701Z,3.45
2017-12-14T07:11:59.319Z,3.46
2017-12-14T07:14:26.908Z,3.48
2017-12-14T07:16:54.520Z,3.49
2017-12-14T07:19:22.105Z,3.50
2017-12-14T07:21:49.682Z,3.52
2017-12-14T07:24:17.305Z,3.49
2017-12-14T07:26:44.924Z,3.51
2017-12-14T07:29:12.506Z,3.51
2017-12-14T07:31:40.081Z,3.51
2017-12-14T07:34:07.679Z,3.51
2017-12-14T07:36:35.257Z,3.52
2017-12-14T07:39:02.892Z,3.49
2017-12-14T07:41:30.511Z,3.51
2017-12-14T07:44:10.061Z,3.50
2017-12-14T07:46:50.026Z,3.48
2017-12-14T07:49:24.315Z,3.49
2017-12-14T07:51:51.890Z,3.47
2017-12-14T07:54:19.454Z,3.46
2017-12-14T07:56:47.054Z,3.46
2017-12-14T07:59:14.626Z,3.46
2017-12-14T08:01:42.202Z,3.44
2017-12-14T08:04:09.816Z,3.41
2017-12-14T08:06:37.406Z,3.38
2017-12-14T08:09:04.987Z,3.36
2017-12-14T08:11:32.616Z,3.37
2017-12-14T08:14:00.172Z,3.34
2017-12-14T08:16:27.745Z,3.31
2017-12-14T08:18:55.351Z,3.30
2017-12-14T08:21:22.923Z,3.29
2017-12-14T08:23:50.618Z,3.30
2017-12-14T08:26:18.220Z,3.32
2017-12-14T08:28:45.822Z,3.30
2017-12-14T08:31:13.386Z,3.29
2017-12-14T08:33:41.005Z,3.29
2017-12-14T08:36:08.555Z,3.31
2017-12-14T08:38:36.127Z,3.26
2017-12-14T08:41:04.226Z,3.27
2017-12-14T08:43:32.369Z,3.26
2017-12-14T08:46:00.042Z,3.26
2017-12-14T08:48:27.603Z,3.31
2017-12-14T08:50:55.222Z,3.35
2017-12-14T08:53:22.801Z,3.38
2017-12-14T08:55:50.461Z,3.42
2017-12-14T08:58:18.030Z,3.45
2017-12-14T09:00:45.617Z,3.45
2017-12-14T09:03:13.228Z,3.44
2017-12-14T09:05:40.829Z,3.45
2017-12-14T09:08:08.455Z,3.51
2017-12-14T09:10:36.032Z,3.54
2017-12-14T09:13:03.628Z,3.56
2017-12-14T09:15:31.202Z,3.60
2017-12-14T09:17:58.867Z,3.66
2017-12-14T09:20:26.446Z,3.71
2017-12-14T09:22:54.044Z,3.73
2017-12-14T09:25:21.615Z,3.76
2017-12-14T09:27:49.212Z,3.84
2017-12-14T09:30:16.778Z,3.92
2017-12-14T09:32:44.351Z,4.07
2017-12-14T09:35:11.960Z,4.17
2017-12-14T09:37:39.548Z,4.26
2017-12-14T09:40:07.195Z,4.34
2017-12-14T09:42:34.766Z,4.42
2017-12-14T09:45:02.405Z,4.46
2017-12-14T09:47:29.958Z,4.50
2017-12-14T09:49:57.561Z,4.55
2017-12-14T09:52:25.137Z,4.59
2017-12-14T09:54:52.725Z,4.67
2017-12-14T09:57:20.323Z,4.74
2017-12-14T09:59:47.932Z,4.83
2017-12-14T10:02:15.538Z,4.94
2017-12-14T10:04:43.105Z,5.07
2017-12-14T10:07:10.707Z,5.18
2017-12-14T10:09:38.319Z,5.18
2017-12-14T10:12:05.947Z,5.10
2017-12-14T10:14:33.517Z,5.12
2017-12-14T10:17:01.137Z,5.15
2017-12-14T10:19:28.722Z,5.24
2017-12-14T10:21:56.299Z,5.27
2017-12-14T10:24:23.909Z,5.37
2017-12-14T10:26:51.486Z,5.41
2017-12-14T10:29:19.078Z,5.48
2017-12-14T10:31:46.652Z,5.42
2017-12-14T10:34:14.265Z,5.46
2017-12-14T10:36:41.857Z,5.36
2017-12-14T10:39:09.434Z,5.38
2017-12-14T10:41:37.001Z,5.46
2017-12-14T10:44:04.761Z,5.51
2017-12-14T10:46:32.319Z,5.52
2017-12-14T10:48:59.961Z,5.52
2017-12-14T10:51:27.533Z,5.53
2017-12-14T10:53:55.133Z,5.53
2017-12-14T10:56:22.717Z,5.46
2017-12-14T10:58:50.311Z,5.47
2017-12-14T11:01:23.587Z,5.49
2017-12-14T11:03:51.159Z,5.52
2017-12-14T11:06:18.835Z,5.55
2017-12-14T11:08:46.416Z,5.70
2017-12-14T11:11:14.019Z,5.78
2017-12-14T11:13:41.613Z,5.81
2017-12-14T11:16:09.205Z,5.70
2017-12-14T11:18:36.847Z,5.59
2017-12-14T11:21:04.457Z,5.53
2017-12-14T11:23:32.071Z,5.52
2017-12-14T11:25:59.674Z,5.54
2017-12-14T11:28:27.275Z,5.61
2017-12-14T11:30:54.857Z,5.65
2017-12-14T11:33:22.447Z,5.71
2017-12-14T11:35:50.002Z,5.68
2017-12-14T11:38:17.661Z,5.59
2017-12-14T11:40:45.264Z,5.54
2017-12-14T11:43:12.840Z,5.60
2017-12-14T11:45:40.455Z,5.62
2017-12-14T11:48:08.025Z,5.57
2017-12-14T11:50:35.743Z,5.46
2017-12-14T11:53:03.326Z,5.36
2017-12-14T11:55:30.970Z,5.32
2017-12-14T11:57:58.551Z,5.29
2017-12-14T12:00:26.149Z,5.30
2017-12-14T12:02:53.741Z,5.28
2017-12-14T12:05:21.351Z,5.25
2017-12-14T12:07:48.985Z,5.21
2017-12-14T12:10:16.727Z,5.21
2017-12-14T12:12:44.305Z,5.25
2017-12-14T12:15:11.880Z,5.29
2017-12-14T12:17:39.566Z,5.31
2017-12-14T12:20:07.141Z,5.25
2017-12-14T12:22:34.747Z,5.26
2017-12-14T12:25:02.324Z,5.26
2017-12-14T12:27:29.911Z,5.28
2017-12-14T12:29:57.503Z,5.27
2017-12-14T12:32:25.099Z,5.32
2017-12-14T12:34:52.690Z,5.33
2017-12-14T12:37:20.268Z,5.36
2017-12-14T12:39:47.926Z,5.38
2017-12-14T12:42:15.549Z,5.38
2017-12-14T12:44:43.144Z,5.35
2017-12-14T12:47:10.727Z,5.31
2017-12-14T12:49:38.308Z,5.31
2017-12-14T12:52:05.930Z,5.30
2017-12-14T12:54:33.536Z,5.30
2017-12-14T12:57:01.136Z,5.31
2017-12-14T12:59:28.998Z,5.39
2017-12-14T13:01:56.600Z,5.41
2017-12-14T13:04:24.160Z,5.38
2017-12-14T13:06:51.764Z,5.39
2017-12-14T13:09:19.310Z,5.41
2017-12-14T13:11:46.894Z,5.36
2017-12-14T13:14:14.493Z,5.35
2017-12-14T13:16:42.080Z,5.34
2017-12-14T13:19:09.685Z,5.39
2017-12-14T13:21:37.286Z,5.45
2017-12-14T13:24:05.908Z,5.50
2017-12-14T13:26:33.494Z,5.48
2017-12-14T13:29:01.120Z,5.47
2017-12-14T13:31:28.719Z,5.47
2017-12-14T13:33:56.367Z,5.47
2017-12-14T13:36:23.940Z,5.45
2017-12-14T13:38:51.550Z,5.40
2017-12-14T13:41:19.144Z,5.30
2017-12-14T13:43:46.732Z,5.24
2017-12-14T13:46:14.333Z,5.21
2017-12-14T13:48:41.948Z,5.19
2017-12-14T13:51:09.552Z,5.12
2017-12-14T13:53:37.110Z,5.07
2017-12-14T13:56:04.726Z,5.03
2017-12-14T13:58:32.329Z,4.94
2017-12-14T14:00:59.954Z,4.89
2017-12-14T14:03:27.558Z,4.84
2017-12-14T14:05:55.184Z,4.81
2017-12-14T14:08:22.775Z,4.77
2017-12-14T14:10:50.506Z,4.73
2017-12-14T14:13:18.114Z,4.71
2017-12-14T14:15:45.689Z,4.66
2017-12-14T14:18:13.321Z,4.63
2017-12-14T14:20:40.904Z,4.61
2017-12-14T14:23:08.500Z,4.59
2017-12-14T14:25:36.058Z,4.54
2017-12-14T14:28:03.637Z,4.54
2017-12-14T14:30:31.228Z,4.53
2017-12-14T14:32:58.848Z,4.48
2017-12-14T14:35:26.449Z,4.48
2017-12-14T14:37:54.069Z,4.43
2017-12-14T14:40:21.686Z,4.40
2017-12-14T14:42:49.273Z,4.37
2017-12-14T14:45:16.882Z,4.35
2017-12-14T14:47:44.490Z,4.38
2017-12-14T14:50:12.160Z,4.33
2017-12-14T14:52:39.744Z,4.31
2017-12-14T14:55:07.326Z,4.30
2017-12-14T14:57:34.924Z,4.29
2017-12-14T15:00:02.486Z,4.26
2017-12-14T15:02:30.100Z,4.23
2017-12-14T15:04:57.730Z,4.22
2017-12-14T15:07:25.373Z,4.22
2017-12-14T15:09:53.344Z,4.20
2017-12-14T15:12:21.009Z,4.19
2017-12-14T15:14:48.609Z,4.16
2017-12-14T15:17:16.214Z,4.16
2017-12-14T15:19:43.897Z,4.21
2017-12-14T15:22:11.499Z,4.15
2017-12-14T15:24:39.127Z,4.16
2017-12-14T15:27:06.714Z,4.16
2017-12-14T15:29:34.336Z,4.12
2017-12-14T15:32:01.950Z,4.09
2017-12-14T15:34:29.546Z,4.12
2017-12-14T15:36:57.118Z,4.11
2017-12-14T15:39:24.738Z,4.08
2017-12-14T15:41:52.326Z,4.08
2017-12-14T15:44:19.980Z,4.07
2017-12-14T15:46:47.555Z,4.09
2017-12-14T15:49:15.165Z,4.10
2017-12-14T15:51:42.752Z,4.10
2017-12-14T15:54:10.317Z,4.08
2017-12-14T15:56:37.973Z,4.06
2017-12-14T15:59:05.572Z,4.03
2017-12-14T16:01:33.156Z,3.99
2017-12-14T16:04:00.732Z,3.98
2017-12-14T16:06:28.338Z,3.99
2017-12-14T16:08:55.892Z,3.99
2017-12-14T16:11:23.485Z,3.99
2017-12-14T16:13:51.053Z,3.98
2017-12-14T16:16:18.638Z,3.96
2017-12-14T16:18:46.223Z,3.94
2017-12-14T16:21:13.878Z,3.91
2017-12-14T16:23:41.486Z,3.86
2017-12-14T16:26:09.091Z,3.84
2017-12-14T16:28:36.682Z,3.82
2017-12-14T16:31:04.299Z,3.78
2017-12-14T16:33:31.887Z,3.75
2017-12-14T16:35:59.584Z,3.74
2017-12-14T16:38:27.185Z,3.71
2017-12-14T16:40:54.807Z,3.72
2017-12-14T16:43:22.498Z,3.68
2017-12-14T16:45:50.059Z,3.68
2017-12-14T16:48:17.655Z,3.70
2017-12-14T16:50:45.266Z,3.78
2017-12-14T16:53:12.865Z,3.77
2017-12-14T16:55:40.476Z,3.80
2017-12-14T16:58:08.061Z,3.80
2017-12-14T17:00:36.098Z,3.78
2017-12-14T17:03:03.699Z,3.77
2017-12-14T17:05:31.286Z,3.77
2017-12-14T17:07:58.887Z,3.77
2017-12-14T17:10:26.576Z,3.78
2017-12-14T17:12:54.215Z,3.76
2017-12-14T17:15:21.795Z,3.76
2017-12-14T17:17:49.382Z,3.76
2017-12-14T17:20:17.011Z,3.74
2017-12-14T17:22:44.586Z,3.73
2017-12-14T17:25:12.197Z,3.71
2017-12-14T17:27:39.848Z,3.68
2017-12-14T17:30:07.483Z,3.66
2017-12-14T17:32:35.216Z,3.63
2017-12-14T17:35:03.151Z,3.62
2017-12-14T17:37:30.748Z,3.61
2017-12-14T17:39:58.339Z,3.59
2017-12-14T17:42:25.937Z,3.59
2017-12-14T17:44:53.547Z,3.57
2017-12-14T17:47:21.154Z,3.55
2017-12-14T17:49:48.776Z,3.52
2017-12-14T17:52:16.363Z,3.49
2017-12-14T17:54:43.951Z,3.48
2017-12-14T17:57:11.646Z,3.47
2017-12-14T17:59:39.244Z,3.43
2017-12-14T18:02:06.848Z,3.42
2017-12-14T18:04:34.503Z,3.41
2017-12-14T18:07:02.143Z,3.42
2017-12-14T18:09:29.778Z,3.43
2017-12-14T18:11:57.444Z,3.44
2017-12-14T18:14:25.039Z,3.45
2017-12-14T18:16:52.716Z,3.45
2017-12-14T18:19:20.341Z,3.46
2017-12-14T18:21:47.955Z,3.50
2017-12-14T18:24:16.598Z,3.51
2017-12-14T18:26:44.237Z,3.51
2017-12-14T18:29:12.240Z,3.50
2017-12-14T18:31:39.867Z,3.48
2017-12-14T18:34:07.543Z,3.47
2017-12-14T18:36:35.155Z,3.46
2017-12-14T18:39:02.881Z,3.45
2017-12-14T18:41:31.164Z,3.46
2017-12-14T18:43:58.910Z,3.50
2017-12-14T18:46:26.513Z,3.51
2017-12-14T18:48:54.197Z,3.47
2017-12-14T18:51:21.863Z,3.53
2017-12-14T18:53:49.451Z,3.54
2017-12-14T18:56:17.081Z,3.53
2017-12-14T18:58:44.681Z,3.49
2017-12-14T19:01:12.419Z,3.51
2017-12-14T19:03:39.999Z,3.51
2017-12-14T19:06:07.629Z,3.51
2017-12-14T19:08:35.270Z,3.49
2017-12-14T19:11:02.904Z,3.51
2017-12-14T19:13:30.535Z,3.50
2017-12-14T19:15:58.136Z,3.50
2017-12-14T19:18:25.784Z,3.49
2017-12-14T19:20:53.399Z,3.48
2017-12-14T19:23:21.018Z,3.47
2017-12-14T19:25:48.620Z,3.50
2017-12-14T19:28:16.228Z,3.51
2017-12-14T19:30:43.864Z,3.50
2017-12-14T19:33:11.569Z,3.50
2017-12-14T19:35:39.300Z,3.47
2017-12-14T19:38:07.150Z,3.49
2017-12-14T19:40:34.832Z,3.51
2017-12-14T19:43:02.606Z,3.52
2017-12-14T19:45:31.372Z,3.50
2017-12-14T19:47:59.108Z,3.52
2017-12-14T19:50:26.832Z,3.55
2017-12-14T19:52:54.576Z,3.58
2017-12-14T19:55:22.359Z,3.60
2017-12-14T19:57:50.102Z,3.65
2017-12-14T20:00:18.564Z,3.65
2017-12-14T20:02:46.368Z,3.66
2017-12-14T20:05:14.110Z,3.67
2017-12-14T20:07:41.838Z,3.68
2017-12-14T20:10:09.572Z,3.70
2017-12-14T20:12:37.359Z,3.70
2017-12-14T20:15:05.114Z,3.74
2017-12-14T20:17:32.884Z,3.80
2017-12-14T20:20:00.696Z,3.84
2017-12-14T20:22:28.475Z,3.85
2017-12-14T20:24:56.188Z,3.86
2017-12-14T20:27:23.918Z,3.85
2017-12-14T20:29:51.635Z,3.87
2017-12-14T20:32:19.417Z,3.89
2017-12-14T20:34:47.178Z,3.89
2017-12-14T20:37:15.059Z,3.90
2017-12-14T20:39:42.763Z,3.92
2017-12-14T20:42:10.515Z,3.92
2017-12-14T20:44:38.235Z,3.92
2017-12-14T20:47:05.984Z,3.89
2017-12-14T20:49:33.667Z,3.91
2017-12-14T20:52:01.388Z,3.89
2017-12-14T20:54:30.165Z,3.91
2017-12-14T20:56:57.866Z,3.92
2017-12-14T20:59:25.586Z,3.94
2017-12-14T21:01:53.313Z,3.97
2017-12-14T21:04:21.308Z,4.03
2017-12-14T21:06:49.054Z,4.11
2017-12-14T21:09:16.889Z,4.12
2017-12-14T21:11:44.538Z,4.15
2017-12-14T21:14:12.214Z,4.15
2017-12-14T21:16:39.928Z,4.19
2017-12-14T21:19:07.581Z,4.20
2017-12-14T21:21:35.248Z,4.16
2017-12-14T21:24:02.990Z,4.21
2017-12-14T21:26:30.633Z,4.20
2017-12-14T21:28:58.254Z,4.17
2017-12-14T21:31:25.878Z,4.16
2017-12-14T21:33:53.486Z,4.16
2017-12-14T21:36:21.146Z,4.15
2017-12-14T21:38:48.736Z,4.14
2017-12-14T21:41:16.411Z,4.10
2017-12-14T21:43:43.984Z,4.12
2017-12-14T21:46:11.590Z,4.12
2017-12-14T21:48:39.182Z,4.12
2017-12-14T21:51:06.815Z,4.09
2017-12-14T21:53:34.414Z,4.06
2017-12-14T21:56:02.043Z,4.04
2017-12-14T21:58:29.666Z,4.00
2017-12-14T22:00:57.305Z,3.96
2017-12-14T22:03:24.911Z,3.94
2017-12-14T22:05:52.501Z,3.92
2017-12-14T22:08:20.157Z,3.87
2017-12-14T22:10:47.731Z,3.81
2017-12-14T22:13:15.373Z,3.77
2017-12-14T22:15:42.974Z,3.77
2017-12-14T22:18:10.575Z,3.77
2017-12-14T22:20:38.148Z,3.77
2017-12-14T22:23:05.750Z,3.75
2017-12-14T22:25:33.364Z,3.75
2017-12-14T22:28:01.002Z,3.75
2017-12-14T22:30:28.605Z,3.75
2017-12-14T22:32:56.213Z,3.74
2017-12-14T22:35:23.835Z,3.75
2017-12-14T22:37:51.413Z,3.76
2017-12-14T22:40:19.031Z,3.77
2017-12-14T22:42:46.643Z,3.77
2017-12-14T22:45:14.277Z,3.78
2017-12-14T22:47:41.891Z,3.79
2017-12-14T22:50:09.495Z,3.80
2017-12-14T22:52:37.062Z,3.82
2017-12-14T22:55:04.670Z,3.82
2017-12-14T22:57:32.313Z,3.82
2017-12-14T22:59:59.910Z,3.84
2017-12-14T23:02:27.545Z,3.84
2017-12-14T23:04:55.143Z,3.84
2017-12-14T23:07:22.785Z,3.84
2017-12-14T23:09:50.402Z,3.85
2017-12-14T23:12:18.033Z,3.84
2017-12-14T23:14:45.612Z,3.84
2017-12-14T23:17:13.193Z,3.84
2017-12-14T23:19:40.775Z,3.85
2017-12-14T23:22:08.461Z,3.85
2017-12-14T23:24:36.206Z,3.85
2017-12-14T23:27:03.838Z,3.84
2017-12-14T23:29:31.783Z,3.84
2017-12-14T23:31:59.375Z,3.83
2017-12-14T23:34:27.007Z,3.81
2017-12-14T23:36:54.615Z,3.82
2017-12-14T23:39:22.227Z,3.81
2017-12-14T23:41:49.801Z,3.81
2017-12-14T23:44:17.437Z,3.82
2017-12-14T23:46:45.070Z,3.82
2017-12-14T23:49:12.928Z,3.79
2017-12-14T23:51:40.513Z,3.76
2017-12-14T23:54:08.098Z,3.75
2017-12-14T23:56:35.732Z,3.74
2017-12-14T23:59:03.339Z,3.75
